»·PEaware :: N815PA KSNA-KMYF

N815PA :: KSNA-KMYF

FLIGHT INFORMATION

Flight Status: Arrived
Operator: Privately registered:
United States
More flights under this callsign
Pilot: Felix V. (26365)
Aircraft: SOCATA TBM-900
(TBM9)
More flights by this aircraft type
Origin: KSNA John Wayne-Orange Co
United States
Destination: KMYF Montgomery
United States
More flights between these airports :: More routes between these airports
Route: V25 PACIF V208 LAX118 CARDI MZB320 MZB
File this flight plan on PilotEdge
Remarks: TEC route CSTP19
Altitude:
(Current/Filed)
9,000ft
Speed:
(Current/Filed)
300kts
Departed: 10-Nov-19 10:39 PM
Arrived: 10-Nov-19 11:09 PM
Distance/Time
Traveled:
63nm/0:30
Distance/Time
To Go:
Arrived

Flight Plot

Page will automatically refresh every two minutes.


Map Options




Map Legend


Flown Route
Filed Route
Departure Airport
Arrival Airport
Navaid (VOR, NDB)
Fix

Horizontal Profiles

Position Reports

Time Latitude Longitude Heading Altitude Ground
Speed
10-Nov-19 22:18 33.672456 -117.867185 208 59ft 0kts
10-Nov-19 22:19 33.672456 -117.867185 208 59ft 0kts
10-Nov-19 22:20 33.672456 -117.867185 208 59ft 0kts
10-Nov-19 22:22 33.672456 -117.867185 208 59ft 0kts
10-Nov-19 22:23 33.672456 -117.867185 208 59ft 0kts
10-Nov-19 22:24 33.672456 -117.867185 208 59ft 0kts
10-Nov-19 22:25 33.672456 -117.867185 208 59ft 0kts
10-Nov-19 22:26 33.672456 -117.867185 208 59ft 0kts
10-Nov-19 22:27 33.672456 -117.867185 208 59ft 0kts
10-Nov-19 22:28 33.672456 -117.867186 208 59ft 0kts
10-Nov-19 22:29 33.672456 -117.867186 208 59ft 0kts
10-Nov-19 22:30 33.672456 -117.867186 208 59ft 0kts
10-Nov-19 22:31 33.672365 -117.867527 297 59ft 13kts
10-Nov-19 22:32 33.676113 -117.865818 27 59ft 31kts
10-Nov-19 22:33 33.680450 -117.864734 298 59ft 2kts
10-Nov-19 22:34 33.680474 -117.864786 298 59ft 0kts
10-Nov-19 22:35 33.680474 -117.864786 298 59ft 0kts
10-Nov-19 22:36 33.680474 -117.864786 298 59ft 0kts
10-Nov-19 22:37 33.680711 -117.865638 206 59ft 16kts
10-Nov-19 22:38 33.651782 -117.876731 186 1913ft 134kts
10-Nov-19 22:39 33.615192 -117.881752 186 4574ft 137kts
10-Nov-19 22:40 33.576177 -117.887580 186 7377ft 147kts
10-Nov-19 22:41 33.530680 -117.895424 186 9048ft 217kts
10-Nov-19 22:42 33.469397 -117.867628 147 9000ft 260kts
10-Nov-19 22:43 33.404771 -117.824989 149 8985ft 267kts
10-Nov-19 22:44 33.340291 -117.783211 149 8987ft 265kts
10-Nov-19 22:45 33.284040 -117.731890 101 8990ft 255kts
10-Nov-19 22:46 33.270989 -117.649000 98 8990ft 255kts
10-Nov-19 22:47 33.253319 -117.568315 129 8970ft 260kts
10-Nov-19 22:48 33.203627 -117.505852 131 8988ft 260kts
10-Nov-19 22:49 33.153874 -117.443569 131 8989ft 259kts
10-Nov-19 22:50 33.090266 -117.402441 151 8980ft 261kts
10-Nov-19 22:51 33.025044 -117.363287 151 8972ft 263kts
10-Nov-19 22:52 32.960122 -117.322941 151 8973ft 266kts
10-Nov-19 22:53 32.895832 -117.281395 151 8980ft 267kts
10-Nov-19 22:54 32.863033 -117.210962 101 8986ft 263kts
10-Nov-19 22:55 32.847815 -117.126250 101 8256ft 280kts
10-Nov-19 22:56 32.831771 -117.036065 101 6983ft 272kts
10-Nov-19 22:57 32.816460 -116.951449 101 6982ft 257kts
10-Nov-19 22:58 32.800917 -116.866023 101 5272ft 282kts
10-Nov-19 22:59 32.768358 -116.806059 181 4955ft 238kts
10-Nov-19 23:00 32.721444 -116.825685 249 4955ft 184kts
10-Nov-19 23:01 32.716961 -116.881079 294 4537ft 187kts
10-Nov-19 23:02 32.732403 -116.924694 292 3562ft 157kts
10-Nov-19 23:03 32.745631 -116.957956 291 3286ft 167kts
10-Nov-19 23:04 32.764364 -117.007870 295 2477ft 160kts
10-Nov-19 23:05 32.779968 -117.047618 295 2010ft 157kts
10-Nov-19 23:06 32.799955 -117.098473 295 1119ft 116kts
10-Nov-19 23:07 32.812837 -117.131261 294 485ft 75kts
10-Nov-19 23:08 32.815500 -117.141590 246 416ft 17kts
10-Nov-19 23:09 32.813178 -117.141769 21 413ft 0kts
10-Nov-19 23:10 32.813178 -117.141769 21 413ft 0kts
10-Nov-19 23:11 32.811306 -117.127363 294 576ft 78kts
10-Nov-19 23:12 32.816031 -117.140246 243 418ft 14kts
10-Nov-19 23:13 32.813463 -117.141438 204 414ft 24kts
10-Nov-19 23:14 32.813178 -117.141769 21 413ft 0kts
10-Nov-19 23:15 32.813178 -117.141769 21 413ft 0kts

Navigation Log

Ident Type
Flight plan parsing failed, navigation log unavailable